sensor_id;sensor_type;location;lat;lon;timestamp;P1;durP1;ratioP1;P2;durP2;ratioP2
72601;SDS011;60644;55.858;37.390;2023-03-24T00:01:22;18.30;;;8.68;;
72601;SDS011;60644;55.858;37.390;2023-03-24T00:03:48;17.97;;;7.50;;
72601;SDS011;60644;55.858;37.390;2023-03-24T00:06:16;14.75;;;7.75;;
72601;SDS011;60644;55.858;37.390;2023-03-24T00:08:43;17.02;;;9.18;;
72601;SDS011;60644;55.858;37.390;2023-03-24T00:11:12;16.33;;;8.32;;
72601;SDS011;60644;55.858;37.390;2023-03-24T00:13:39;14.18;;;7.78;;
72601;SDS011;60644;55.858;37.390;2023-03-24T00:18:30;16.95;;;7.72;;
72601;SDS011;60644;55.858;37.390;2023-03-24T00:20:56;18.98;;;9.77;;
72601;SDS011;60644;55.858;37.390;2023-03-24T00:23:23;17.17;;;8.20;;
72601;SDS011;60644;55.858;37.390;2023-03-24T00:25:57;15.32;;;7.70;;
72601;SDS011;60644;55.858;37.390;2023-03-24T00:28:23;18.48;;;8.98;;
72601;SDS011;60644;55.858;37.390;2023-03-24T00:30:50;16.42;;;7.60;;
72601;SDS011;60644;55.858;37.390;2023-03-24T00:33:16;19.83;;;8.55;;
72601;SDS011;60644;55.858;37.390;2023-03-24T00:35:42;16.33;;;8.07;;
72601;SDS011;60644;55.858;37.390;2023-03-24T00:38:09;16.10;;;7.78;;
72601;SDS011;60644;55.858;37.390;2023-03-24T00:40:34;16.80;;;7.63;;
72601;SDS011;60644;55.858;37.390;2023-03-24T00:43:00;17.57;;;10.77;;
72601;SDS011;60644;55.858;37.390;2023-03-24T00:45:26;18.30;;;8.95;;
72601;SDS011;60644;55.858;37.390;2023-03-24T00:47:53;19.05;;;9.02;;
72601;SDS011;60644;55.858;37.390;2023-03-24T00:50:22;18.80;;;9.55;;
72601;SDS011;60644;55.858;37.390;2023-03-24T00:52:51;22.30;;;8.30;;
72601;SDS011;60644;55.858;37.390;2023-03-24T00:55:17;16.27;;;8.00;;
72601;SDS011;60644;55.858;37.390;2023-03-24T00:57:43;21.15;;;9.48;;
72601;SDS011;60644;55.858;37.390;2023-03-24T01:00:15;18.48;;;9.90;;
72601;SDS011;60644;55.858;37.390;2023-03-24T01:02:45;19.23;;;9.00;;
72601;SDS011;60644;55.858;37.390;2023-03-24T01:05:11;15.23;;;7.82;;
72601;SDS011;60644;55.858;37.390;2023-03-24T01:07:39;18.15;;;9.35;;
72601;SDS011;60644;55.858;37.390;2023-03-24T01:10:06;18.48;;;8.88;;
72601;SDS011;60644;55.858;37.390;2023-03-24T01:12:33;16.45;;;8.30;;
72601;SDS011;60644;55.858;37.390;2023-03-24T01:15:02;15.97;;;8.17;;
72601;SDS011;60644;55.858;37.390;2023-03-24T01:17:30;16.88;;;8.02;;
72601;SDS011;60644;55.858;37.390;2023-03-24T01:19:56;18.13;;;8.48;;
72601;SDS011;60644;55.858;37.390;2023-03-24T01:22:25;18.33;;;9.07;;
72601;SDS011;60644;55.858;37.390;2023-03-24T01:24:51;15.68;;;8.63;;
72601;SDS011;60644;55.858;37.390;2023-03-24T01:27:17;18.10;;;9.57;;
72601;SDS011;60644;55.858;37.390;2023-03-24T01:29:43;17.27;;;9.25;;
72601;SDS011;60644;55.858;37.390;2023-03-24T01:32:08;16.90;;;8.90;;
72601;SDS011;60644;55.858;37.390;2023-03-24T01:34:34;18.85;;;9.80;;
72601;SDS011;60644;55.858;37.390;2023-03-24T01:37:00;16.00;;;8.80;;
72601;SDS011;60644;55.858;37.390;2023-03-24T01:39:26;21.20;;;9.00;;
72601;SDS011;60644;55.858;37.390;2023-03-24T01:41:51;24.47;;;10.80;;
72601;SDS011;60644;55.858;37.390;2023-03-24T01:46:49;20.08;;;8.43;;
72601;SDS011;60644;55.858;37.390;2023-03-24T01:49:15;18.55;;;8.98;;
72601;SDS011;60644;55.858;37.390;2023-03-24T01:51:42;18.85;;;8.90;;
72601;SDS011;60644;55.858;37.390;2023-03-24T01:56:35;22.33;;;9.67;;
72601;SDS011;60644;55.858;37.390;2023-03-24T01:59:04;18.13;;;8.73;;
72601;SDS011;60644;55.858;37.390;2023-03-24T02:01:57;17.65;;;8.18;;
72601;SDS011;60644;55.858;37.390;2023-03-24T02:04:36;19.08;;;8.60;;
72601;SDS011;60644;55.858;37.390;2023-03-24T02:07:13;24.08;;;9.50;;
72601;SDS011;60644;55.858;37.390;2023-03-24T02:09:40;19.08;;;9.10;;
72601;SDS011;60644;55.858;37.390;2023-03-24T02:12:06;20.50;;;8.40;;
72601;SDS011;60644;55.858;37.390;2023-03-24T02:14:33;19.08;;;9.05;;
72601;SDS011;60644;55.858;37.390;2023-03-24T02:30:59;18.05;;;8.63;;
72601;SDS011;60644;55.858;37.390;2023-03-24T02:33:34;20.30;;;8.48;;
72601;SDS011;60644;55.858;37.390;2023-03-24T02:38:51;19.25;;;8.35;;
72601;SDS011;60644;55.858;37.390;2023-03-24T02:51:47;17.90;;;8.32;;
72601;SDS011;60644;55.858;37.390;2023-03-24T02:59:52;18.67;;;9.27;;
72601;SDS011;60644;55.858;37.390;2023-03-24T03:02:41;20.38;;;8.30;;
72601;SDS011;60644;55.858;37.390;2023-03-24T03:05:14;19.42;;;9.10;;
72601;SDS011;60644;55.858;37.390;2023-03-24T03:07:40;17.63;;;9.43;;
72601;SDS011;60644;55.858;37.390;2023-03-24T03:10:14;21.00;;;9.70;;
72601;SDS011;60644;55.858;37.390;2023-03-24T03:12:40;17.58;;;9.80;;
72601;SDS011;60644;55.858;37.390;2023-03-24T03:15:07;17.20;;;9.00;;
72601;SDS011;60644;55.858;37.390;2023-03-24T03:17:35;25.55;;;9.77;;
72601;SDS011;60644;55.858;37.390;2023-03-24T03:20:06;18.48;;;9.25;;
72601;SDS011;60644;55.858;37.390;2023-03-24T03:22:39;17.27;;;8.87;;
72601;SDS011;60644;55.858;37.390;2023-03-24T03:25:08;21.42;;;9.75;;
72601;SDS011;60644;55.858;37.390;2023-03-24T03:27:35;15.95;;;8.60;;
72601;SDS011;60644;55.858;37.390;2023-03-24T03:30:25;21.00;;;9.63;;
72601;SDS011;60644;55.858;37.390;2023-03-24T03:32:56;17.75;;;8.48;;
72601;SDS011;60644;55.858;37.390;2023-03-24T03:35:26;17.60;;;9.43;;
72601;SDS011;60644;55.858;37.390;2023-03-24T03:40:40;22.40;;;10.35;;
72601;SDS011;60644;55.858;37.390;2023-03-24T03:43:13;17.35;;;8.85;;
72601;SDS011;60644;55.858;37.390;2023-03-24T03:45:39;17.08;;;9.02;;
72601;SDS011;60644;55.858;37.390;2023-03-24T03:48:05;17.20;;;9.27;;
72601;SDS011;60644;55.858;37.390;2023-03-24T03:50:31;21.05;;;10.63;;
72601;SDS011;60644;55.858;37.390;2023-03-24T03:53:02;20.63;;;9.73;;
72601;SDS011;60644;55.858;37.390;2023-03-24T03:55:28;19.08;;;9.32;;
72601;SDS011;60644;55.858;37.390;2023-03-24T03:57:55;18.20;;;9.82;;
72601;SDS011;60644;55.858;37.390;2023-03-24T04:00:31;20.05;;;10.82;;
72601;SDS011;60644;55.858;37.390;2023-03-24T04:03:34;19.75;;;9.40;;
72601;SDS011;60644;55.858;37.390;2023-03-24T04:33:19;23.65;;;12.00;;
72601;SDS011;60644;55.858;37.390;2023-03-24T04:36:01;24.35;;;11.68;;
72601;SDS011;60644;55.858;37.390;2023-03-24T04:38:43;26.63;;;13.85;;
72601;SDS011;60644;55.858;37.390;2023-03-24T04:41:27;27.23;;;13.48;;
72601;SDS011;60644;55.858;37.390;2023-03-24T04:44:06;25.23;;;12.32;;
72601;SDS011;60644;55.858;37.390;2023-03-24T04:46:41;23.45;;;12.23;;
72601;SDS011;60644;55.858;37.390;2023-03-24T04:49:13;23.70;;;11.90;;
72601;SDS011;60644;55.858;37.390;2023-03-24T04:51:41;23.50;;;12.38;;
72601;SDS011;60644;55.858;37.390;2023-03-24T04:54:19;25.25;;;12.70;;
72601;SDS011;60644;55.858;37.390;2023-03-24T04:56:53;24.00;;;13.38;;
72601;SDS011;60644;55.858;37.390;2023-03-24T04:59:36;24.23;;;12.70;;
72601;SDS011;60644;55.858;37.390;2023-03-24T05:02:04;24.85;;;12.80;;
72601;SDS011;60644;55.858;37.390;2023-03-24T05:04:46;24.10;;;12.60;;
72601;SDS011;60644;55.858;37.390;2023-03-24T05:07:23;22.95;;;11.98;;
72601;SDS011;60644;55.858;37.390;2023-03-24T05:09:54;22.23;;;12.18;;
72601;SDS011;60644;55.858;37.390;2023-03-24T05:12:20;24.73;;;14.63;;
72601;SDS011;60644;55.858;37.390;2023-03-24T05:15:09;27.85;;;15.35;;
72601;SDS011;60644;55.858;37.390;2023-03-24T05:17:36;28.67;;;13.57;;
72601;SDS011;60644;55.858;37.390;2023-03-24T05:20:03;26.48;;;14.73;;
72601;SDS011;60644;55.858;37.390;2023-03-24T05:22:35;24.13;;;13.30;;
72601;SDS011;60644;55.858;37.390;2023-03-24T05:25:01;24.25;;;12.73;;
72601;SDS011;60644;55.858;37.390;2023-03-24T05:27:28;23.70;;;13.95;;
72601;SDS011;60644;55.858;37.390;2023-03-24T05:29:54;29.55;;;13.65;;
72601;SDS011;60644;55.858;37.390;2023-03-24T05:32:24;25.98;;;14.70;;
72601;SDS011;60644;55.858;37.390;2023-03-24T05:34:50;24.35;;;13.07;;
72601;SDS011;60644;55.858;37.390;2023-03-24T05:37:22;25.80;;;14.20;;
72601;SDS011;60644;55.858;37.390;2023-03-24T05:39:49;27.83;;;13.73;;
72601;SDS011;60644;55.858;37.390;2023-03-24T05:42:29;24.60;;;13.73;;
72601;SDS011;60644;55.858;37.390;2023-03-24T05:44:57;25.63;;;13.75;;
72601;SDS011;60644;55.858;37.390;2023-03-24T05:47:25;24.67;;;14.05;;
72601;SDS011;60644;55.858;37.390;2023-03-24T05:49:52;26.15;;;14.32;;
72601;SDS011;60644;55.858;37.390;2023-03-24T05:52:18;27.10;;;14.53;;
72601;SDS011;60644;55.858;37.390;2023-03-24T05:54:47;26.75;;;14.55;;
72601;SDS011;60644;55.858;37.390;2023-03-24T05:57:20;25.33;;;13.90;;
72601;SDS011;60644;55.858;37.390;2023-03-24T06:00:14;26.60;;;14.60;;
72601;SDS011;60644;55.858;37.390;2023-03-24T06:02:56;25.17;;;13.65;;
72601;SDS011;60644;55.858;37.390;2023-03-24T06:05:31;27.73;;;14.82;;
72601;SDS011;60644;55.858;37.390;2023-03-24T06:07:57;26.73;;;14.85;;
72601;SDS011;60644;55.858;37.390;2023-03-24T06:10:24;30.00;;;16.83;;
72601;SDS011;60644;55.858;37.390;2023-03-24T06:12:54;28.17;;;15.57;;
72601;SDS011;60644;55.858;37.390;2023-03-24T06:15:21;23.87;;;14.03;;
72601;SDS011;60644;55.858;37.390;2023-03-24T06:17:47;29.10;;;14.93;;
72601;SDS011;60644;55.858;37.390;2023-03-24T06:20:30;24.88;;;13.23;;
72601;SDS011;60644;55.858;37.390;2023-03-24T06:23:03;24.75;;;13.85;;
72601;SDS011;60644;55.858;37.390;2023-03-24T06:25:36;26.90;;;15.90;;
72601;SDS011;60644;55.858;37.390;2023-03-24T06:28:13;26.93;;;14.67;;
72601;SDS011;60644;55.858;37.390;2023-03-24T06:30:42;24.13;;;12.48;;
72601;SDS011;60644;55.858;37.390;2023-03-24T06:33:08;26.45;;;14.27;;
72601;SDS011;60644;55.858;37.390;2023-03-24T06:35:36;25.83;;;14.70;;
72601;SDS011;60644;55.858;37.390;2023-03-24T06:38:05;24.88;;;14.00;;
72601;SDS011;60644;55.858;37.390;2023-03-24T06:40:32;21.10;;;12.10;;
72601;SDS011;60644;55.858;37.390;2023-03-24T06:42:58;24.15;;;12.65;;
72601;SDS011;60644;55.858;37.390;2023-03-24T06:45:24;23.42;;;12.02;;
72601;SDS011;60644;55.858;37.390;2023-03-24T06:47:53;22.08;;;12.27;;
72601;SDS011;60644;55.858;37.390;2023-03-24T06:50:21;17.17;;;8.97;;
72601;SDS011;60644;55.858;37.390;2023-03-24T06:52:47;20.92;;;12.18;;
72601;SDS011;60644;55.858;37.390;2023-03-24T06:55:17;22.70;;;13.07;;
72601;SDS011;60644;55.858;37.390;2023-03-24T06:57:42;19.38;;;11.98;;
72601;SDS011;60644;55.858;37.390;2023-03-24T07:00:18;19.80;;;10.87;;
72601;SDS011;60644;55.858;37.390;2023-03-24T07:02:58;20.85;;;11.82;;
72601;SDS011;60644;55.858;37.390;2023-03-24T07:05:27;18.83;;;10.27;;
72601;SDS011;60644;55.858;37.390;2023-03-24T07:07:52;18.63;;;9.75;;
72601;SDS011;60644;55.858;37.390;2023-03-24T07:10:38;20.30;;;10.77;;
72601;SDS011;60644;55.858;37.390;2023-03-24T07:13:04;17.67;;;10.50;;
72601;SDS011;60644;55.858;37.390;2023-03-24T07:15:33;19.20;;;10.50;;
72601;SDS011;60644;55.858;37.390;2023-03-24T07:17:59;17.15;;;9.23;;
72601;SDS011;60644;55.858;37.390;2023-03-24T07:20:40;18.27;;;10.05;;
72601;SDS011;60644;55.858;37.390;2023-03-24T07:23:11;18.07;;;9.17;;
72601;SDS011;60644;55.858;37.390;2023-03-24T07:25:55;21.13;;;10.45;;
72601;SDS011;60644;55.858;37.390;2023-03-24T07:28:41;15.30;;;7.85;;
72601;SDS011;60644;55.858;37.390;2023-03-24T07:31:08;16.80;;;9.00;;
72601;SDS011;60644;55.858;37.390;2023-03-24T07:33:35;18.85;;;9.77;;
72601;SDS011;60644;55.858;37.390;2023-03-24T07:36:06;13.77;;;6.93;;
72601;SDS011;60644;55.858;37.390;2023-03-24T07:38:34;16.73;;;9.02;;
72601;SDS011;60644;55.858;37.390;2023-03-24T07:41:04;18.17;;;8.35;;
72601;SDS011;60644;55.858;37.390;2023-03-24T07:43:33;15.00;;;7.28;;
72601;SDS011;60644;55.858;37.390;2023-03-24T07:46:02;19.25;;;9.45;;
72601;SDS011;60644;55.858;37.390;2023-03-24T07:48:28;17.83;;;8.60;;
72601;SDS011;60644;55.858;37.390;2023-03-24T07:50:53;15.30;;;8.65;;
72601;SDS011;60644;55.858;37.390;2023-03-24T07:53:45;14.48;;;7.57;;
72601;SDS011;60644;55.858;37.390;2023-03-24T07:56:19;16.15;;;7.68;;
72601;SDS011;60644;55.858;37.390;2023-03-24T07:58:51;12.52;;;5.75;;
72601;SDS011;60644;55.858;37.390;2023-03-24T08:01:44;14.93;;;7.60;;
72601;SDS011;60644;55.858;37.390;2023-03-24T08:04:11;13.38;;;6.85;;
72601;SDS011;60644;55.858;37.390;2023-03-24T08:06:54;13.13;;;6.72;;
72601;SDS011;60644;55.858;37.390;2023-03-24T08:09:19;11.55;;;5.80;;
72601;SDS011;60644;55.858;37.390;2023-03-24T08:11:48;12.73;;;6.65;;
72601;SDS011;60644;55.858;37.390;2023-03-24T08:14:13;12.43;;;6.22;;
72601;SDS011;60644;55.858;37.390;2023-03-24T08:16:39;11.60;;;6.37;;
72601;SDS011;60644;55.858;37.390;2023-03-24T08:19:05;12.20;;;6.03;;
72601;SDS011;60644;55.858;37.390;2023-03-24T08:21:31;13.43;;;6.25;;
72601;SDS011;60644;55.858;37.390;2023-03-24T08:23:56;11.18;;;5.63;;
72601;SDS011;60644;55.858;37.390;2023-03-24T08:26:22;12.43;;;6.93;;
72601;SDS011;60644;55.858;37.390;2023-03-24T08:28:51;12.50;;;6.28;;
72601;SDS011;60644;55.858;37.390;2023-03-24T08:31:17;11.23;;;6.30;;
72601;SDS011;60644;55.858;37.390;2023-03-24T08:33:42;11.80;;;6.53;;
72601;SDS011;60644;55.858;37.390;2023-03-24T08:36:08;10.95;;;5.78;;
72601;SDS011;60644;55.858;37.390;2023-03-24T08:38:34;13.00;;;7.03;;
72601;SDS011;60644;55.858;37.390;2023-03-24T08:41:03;12.20;;;5.88;;
72601;SDS011;60644;55.858;37.390;2023-03-24T08:43:31;12.43;;;7.00;;
72601;SDS011;60644;55.858;37.390;2023-03-24T08:45:58;10.77;;;5.60;;
72601;SDS011;60644;55.858;37.390;2023-03-24T08:48:24;11.27;;;5.35;;
72601;SDS011;60644;55.858;37.390;2023-03-24T08:50:50;11.15;;;5.40;;
72601;SDS011;60644;55.858;37.390;2023-03-24T08:53:15;11.98;;;5.75;;
72601;SDS011;60644;55.858;37.390;2023-03-24T08:55:41;10.77;;;5.05;;
72601;SDS011;60644;55.858;37.390;2023-03-24T08:58:08;11.60;;;4.78;;
72601;SDS011;60644;55.858;37.390;2023-03-24T09:00:36;10.17;;;4.50;;
72601;SDS011;60644;55.858;37.390;2023-03-24T09:03:02;9.60;;;4.15;;
72601;SDS011;60644;55.858;37.390;2023-03-24T09:05:27;8.23;;;4.00;;
72601;SDS011;60644;55.858;37.390;2023-03-24T09:07:53;9.85;;;4.20;;
72601;SDS011;60644;55.858;37.390;2023-03-24T09:10:19;9.77;;;4.53;;
72601;SDS011;60644;55.858;37.390;2023-03-24T09:12:46;8.57;;;4.07;;
72601;SDS011;60644;55.858;37.390;2023-03-24T09:15:12;10.30;;;4.40;;
72601;SDS011;60644;55.858;37.390;2023-03-24T09:17:38;8.63;;;4.17;;
72601;SDS011;60644;55.858;37.390;2023-03-24T09:20:04;7.90;;;4.03;;
72601;SDS011;60644;55.858;37.390;2023-03-24T09:22:38;8.48;;;4.05;;
72601;SDS011;60644;55.858;37.390;2023-03-24T09:25:04;8.35;;;4.10;;
72601;SDS011;60644;55.858;37.390;2023-03-24T09:27:31;8.40;;;4.40;;
72601;SDS011;60644;55.858;37.390;2023-03-24T09:29:56;7.95;;;3.95;;
72601;SDS011;60644;55.858;37.390;2023-03-24T09:32:22;8.97;;;3.90;;
72601;SDS011;60644;55.858;37.390;2023-03-24T09:34:48;10.60;;;4.37;;
72601;SDS011;60644;55.858;37.390;2023-03-24T09:37:13;8.45;;;3.70;;
72601;SDS011;60644;55.858;37.390;2023-03-24T09:39:39;8.83;;;4.13;;
72601;SDS011;60644;55.858;37.390;2023-03-24T09:42:05;8.35;;;4.15;;
72601;SDS011;60644;55.858;37.390;2023-03-24T09:44:42;9.63;;;4.20;;
72601;SDS011;60644;55.858;37.390;2023-03-24T09:47:27;9.10;;;4.65;;
72601;SDS011;60644;55.858;37.390;2023-03-24T09:49:56;9.02;;;5.75;;
72601;SDS011;60644;55.858;37.390;2023-03-24T09:52:24;9.05;;;4.13;;
72601;SDS011;60644;55.858;37.390;2023-03-24T09:54:58;8.57;;;4.18;;
72601;SDS011;60644;55.858;37.390;2023-03-24T09:57:44;9.80;;;5.03;;
72601;SDS011;60644;55.858;37.390;2023-03-24T10:00:19;8.93;;;4.20;;
72601;SDS011;60644;55.858;37.390;2023-03-24T10:02:46;9.50;;;4.22;;
72601;SDS011;60644;55.858;37.390;2023-03-24T10:05:20;9.93;;;4.55;;
72601;SDS011;60644;55.858;37.390;2023-03-24T10:07:54;9.82;;;4.43;;
72601;SDS011;60644;55.858;37.390;2023-03-24T10:10:44;9.90;;;3.90;;
72601;SDS011;60644;55.858;37.390;2023-03-24T10:13:17;8.77;;;4.13;;
72601;SDS011;60644;55.858;37.390;2023-03-24T10:15:47;8.57;;;4.25;;
72601;SDS011;60644;55.858;37.390;2023-03-24T10:18:32;11.98;;;4.53;;
72601;SDS011;60644;55.858;37.390;2023-03-24T10:21:13;9.07;;;4.13;;
72601;SDS011;60644;55.858;37.390;2023-03-24T10:28:49;8.35;;;3.90;;
72601;SDS011;60644;55.858;37.390;2023-03-24T10:31:17;9.32;;;4.47;;
72601;SDS011;60644;55.858;37.390;2023-03-24T10:33:44;8.88;;;4.18;;
72601;SDS011;60644;55.858;37.390;2023-03-24T10:36:11;8.63;;;3.70;;
72601;SDS011;60644;55.858;37.390;2023-03-24T10:38:39;7.97;;;3.72;;
72601;SDS011;60644;55.858;37.390;2023-03-24T10:41:05;8.90;;;3.75;;
72601;SDS011;60644;55.858;37.390;2023-03-24T10:43:31;8.20;;;4.57;;
72601;SDS011;60644;55.858;37.390;2023-03-24T10:45:57;10.40;;;4.15;;
72601;SDS011;60644;55.858;37.390;2023-03-24T10:50:59;7.05;;;2.95;;
72601;SDS011;60644;55.858;37.390;2023-03-24T10:53:24;9.20;;;3.40;;
72601;SDS011;60644;55.858;37.390;2023-03-24T10:55:50;8.45;;;3.15;;
72601;SDS011;60644;55.858;37.390;2023-03-24T10:58:20;7.47;;;2.85;;
72601;SDS011;60644;55.858;37.390;2023-03-24T11:00:50;7.03;;;2.80;;
72601;SDS011;60644;55.858;37.390;2023-03-24T11:03:16;6.43;;;2.87;;
72601;SDS011;60644;55.858;37.390;2023-03-24T11:05:45;8.85;;;3.40;;
72601;SDS011;60644;55.858;37.390;2023-03-24T11:10:37;7.13;;;2.60;;
72601;SDS011;60644;55.858;37.390;2023-03-24T11:13:03;6.63;;;3.00;;
72601;SDS011;60644;55.858;37.390;2023-03-24T11:15:35;6.88;;;2.78;;
72601;SDS011;60644;55.858;37.390;2023-03-24T11:20:40;6.40;;;2.30;;
72601;SDS011;60644;55.858;37.390;2023-03-24T11:23:09;5.97;;;2.10;;
72601;SDS011;60644;55.858;37.390;2023-03-24T11:25:37;6.28;;;2.20;;
72601;SDS011;60644;55.858;37.390;2023-03-24T11:28:07;6.22;;;2.00;;
72601;SDS011;60644;55.858;37.390;2023-03-24T11:30:42;6.70;;;2.78;;
72601;SDS011;60644;55.858;37.390;2023-03-24T11:33:12;6.43;;;2.90;;
72601;SDS011;60644;55.858;37.390;2023-03-24T11:35:38;7.03;;;2.95;;
72601;SDS011;60644;55.858;37.390;2023-03-24T11:38:05;6.30;;;2.30;;
72601;SDS011;60644;55.858;37.390;2023-03-24T11:40:30;6.22;;;1.90;;
72601;SDS011;60644;55.858;37.390;2023-03-24T11:42:57;5.72;;;2.15;;
72601;SDS011;60644;55.858;37.390;2023-03-24T11:45:34;6.10;;;2.67;;
72601;SDS011;60644;55.858;37.390;2023-03-24T11:48:03;6.10;;;2.15;;
72601;SDS011;60644;55.858;37.390;2023-03-24T11:50:34;5.05;;;1.77;;
72601;SDS011;60644;55.858;37.390;2023-03-24T11:55:34;5.93;;;1.70;;
72601;SDS011;60644;55.858;37.390;2023-03-24T12:05:32;5.77;;;2.00;;
72601;SDS011;60644;55.858;37.390;2023-03-24T12:08:10;6.05;;;1.80;;
72601;SDS011;60644;55.858;37.390;2023-03-24T12:13:08;7.07;;;2.55;;
72601;SDS011;60644;55.858;37.390;2023-03-24T12:15:36;5.75;;;2.00;;
72601;SDS011;60644;55.858;37.390;2023-03-24T12:18:14;5.55;;;1.70;;
72601;SDS011;60644;55.858;37.390;2023-03-24T12:39:09;5.45;;;1.42;;
72601;SDS011;60644;55.858;37.390;2023-03-24T12:41:47;4.28;;;1.30;;
72601;SDS011;60644;55.858;37.390;2023-03-24T12:49:43;5.07;;;1.50;;
72601;SDS011;60644;55.858;37.390;2023-03-24T12:52:11;5.75;;;1.58;;
72601;SDS011;60644;55.858;37.390;2023-03-24T12:55:00;4.07;;;1.48;;
72601;SDS011;60644;55.858;37.390;2023-03-24T12:57:31;5.10;;;1.50;;
72601;SDS011;60644;55.858;37.390;2023-03-24T12:59:59;5.57;;;1.48;;
72601;SDS011;60644;55.858;37.390;2023-03-24T13:02:37;4.32;;;1.35;;
72601;SDS011;60644;55.858;37.390;2023-03-24T13:05:09;6.38;;;1.55;;
72601;SDS011;60644;55.858;37.390;2023-03-24T13:07:39;4.90;;;1.40;;
72601;SDS011;60644;55.858;37.390;2023-03-24T13:10:21;5.97;;;1.60;;
72601;SDS011;60644;55.858;37.390;2023-03-24T13:13:03;3.53;;;0.85;;
72601;SDS011;60644;55.858;37.390;2023-03-24T13:15:34;4.25;;;1.00;;
72601;SDS011;60644;55.858;37.390;2023-03-24T13:23:10;3.73;;;0.90;;
72601;SDS011;60644;55.858;37.390;2023-03-24T13:28:06;3.35;;;0.82;;
72601;SDS011;60644;55.858;37.390;2023-03-24T13:30:34;3.85;;;0.98;;
72601;SDS011;60644;55.858;37.390;2023-03-24T13:33:11;4.10;;;0.82;;
72601;SDS011;60644;55.858;37.390;2023-03-24T13:38:42;3.88;;;0.80;;
72601;SDS011;60644;55.858;37.390;2023-03-24T13:41:21;3.83;;;0.93;;
72601;SDS011;60644;55.858;37.390;2023-03-24T13:44:00;4.32;;;1.08;;
72601;SDS011;60644;55.858;37.390;2023-03-24T13:46:27;4.18;;;1.02;;
72601;SDS011;60644;55.858;37.390;2023-03-24T13:48:57;4.67;;;1.40;;
72601;SDS011;60644;55.858;37.390;2023-03-24T13:51:27;2.88;;;0.75;;
72601;SDS011;60644;55.858;37.390;2023-03-24T13:53:54;3.17;;;0.60;;
72601;SDS011;60644;55.858;37.390;2023-03-24T14:01:35;4.55;;;0.88;;
72601;SDS011;60644;55.858;37.390;2023-03-24T14:04:21;3.28;;;0.60;;
72601;SDS011;60644;55.858;37.390;2023-03-24T14:06:57;3.78;;;0.70;;
72601;SDS011;60644;55.858;37.390;2023-03-24T14:09:24;2.95;;;0.60;;
72601;SDS011;60644;55.858;37.390;2023-03-24T14:14:28;4.22;;;0.90;;
72601;SDS011;60644;55.858;37.390;2023-03-24T14:19:26;5.03;;;1.07;;
72601;SDS011;60644;55.858;37.390;2023-03-24T14:22:08;4.53;;;0.80;;
72601;SDS011;60644;55.858;37.390;2023-03-24T14:24:37;5.03;;;1.05;;
72601;SDS011;60644;55.858;37.390;2023-03-24T14:29:48;5.20;;;0.80;;
72601;SDS011;60644;55.858;37.390;2023-03-24T14:32:15;5.63;;;0.90;;
72601;SDS011;60644;55.858;37.390;2023-03-24T14:34:50;3.22;;;0.80;;
72601;SDS011;60644;55.858;37.390;2023-03-24T14:37:16;6.63;;;1.35;;
72601;SDS011;60644;55.858;37.390;2023-03-24T14:39:45;4.27;;;1.17;;
72601;SDS011;60644;55.858;37.390;2023-03-24T14:44:57;4.78;;;1.05;;
72601;SDS011;60644;55.858;37.390;2023-03-24T14:47:32;6.63;;;1.33;;
72601;SDS011;60644;55.858;37.390;2023-03-24T14:49:59;4.47;;;0.93;;
72601;SDS011;60644;55.858;37.390;2023-03-24T14:55:09;3.22;;;0.60;;
72601;SDS011;60644;55.858;37.390;2023-03-24T14:57:39;3.95;;;0.85;;
72601;SDS011;60644;55.858;37.390;2023-03-24T15:13:02;3.88;;;0.60;;
72601;SDS011;60644;55.858;37.390;2023-03-24T15:15:28;3.77;;;0.53;;
72601;SDS011;60644;55.858;37.390;2023-03-24T15:17:53;5.05;;;0.80;;
72601;SDS011;60644;55.858;37.390;2023-03-24T15:20:20;4.73;;;0.40;;
72601;SDS011;60644;55.858;37.390;2023-03-24T15:22:46;4.85;;;0.60;;
72601;SDS011;60644;55.858;37.390;2023-03-24T15:25:12;3.30;;;0.70;;
72601;SDS011;60644;55.858;37.390;2023-03-24T15:27:38;2.97;;;0.50;;
72601;SDS011;60644;55.858;37.390;2023-03-24T15:30:13;4.63;;;1.02;;
72601;SDS011;60644;55.858;37.390;2023-03-24T15:32:40;4.20;;;0.80;;
72601;SDS011;60644;55.858;37.390;2023-03-24T15:35:18;3.33;;;0.60;;
72601;SDS011;60644;55.858;37.390;2023-03-24T15:37:48;4.13;;;0.65;;
72601;SDS011;60644;55.858;37.390;2023-03-24T15:42:56;4.28;;;0.60;;
72601;SDS011;60644;55.858;37.390;2023-03-24T15:45:35;3.60;;;0.70;;
72601;SDS011;60644;55.858;37.390;2023-03-24T15:48:35;3.72;;;0.75;;
72601;SDS011;60644;55.858;37.390;2023-03-24T15:51:15;3.78;;;0.43;;
72601;SDS011;60644;55.858;37.390;2023-03-24T15:53:41;2.55;;;0.47;;
72601;SDS011;60644;55.858;37.390;2023-03-24T15:58:47;4.37;;;0.53;;
72601;SDS011;60644;55.858;37.390;2023-03-24T16:01:14;2.83;;;0.70;;
72601;SDS011;60644;55.858;37.390;2023-03-24T16:03:41;5.85;;;0.80;;
72601;SDS011;60644;55.858;37.390;2023-03-24T16:06:11;3.33;;;0.60;;
72601;SDS011;60644;55.858;37.390;2023-03-24T16:08:38;4.18;;;0.52;;
72601;SDS011;60644;55.858;37.390;2023-03-24T16:11:07;3.38;;;0.52;;
72601;SDS011;60644;55.858;37.390;2023-03-24T16:13:35;4.32;;;0.60;;
72601;SDS011;60644;55.858;37.390;2023-03-24T16:18:40;3.67;;;0.55;;
72601;SDS011;60644;55.858;37.390;2023-03-24T16:23:41;3.83;;;0.50;;
72601;SDS011;60644;55.858;37.390;2023-03-24T16:26:11;4.63;;;0.45;;
72601;SDS011;60644;55.858;37.390;2023-03-24T16:28:37;3.70;;;0.90;;
72601;SDS011;60644;55.858;37.390;2023-03-24T16:31:03;2.73;;;0.60;;
72601;SDS011;60644;55.858;37.390;2023-03-24T16:33:29;3.85;;;0.73;;
72601;SDS011;60644;55.858;37.390;2023-03-24T16:35:55;3.97;;;0.60;;
72601;SDS011;60644;55.858;37.390;2023-03-24T16:38:20;3.00;;;0.60;;
72601;SDS011;60644;55.858;37.390;2023-03-24T16:40:50;6.63;;;0.80;;
72601;SDS011;60644;55.858;37.390;2023-03-24T16:43:16;5.00;;;1.27;;
72601;SDS011;60644;55.858;37.390;2023-03-24T16:45:47;5.55;;;0.77;;
72601;SDS011;60644;55.858;37.390;2023-03-24T16:48:13;5.03;;;0.80;;
72601;SDS011;60644;55.858;37.390;2023-03-24T16:50:46;7.05;;;1.33;;
72601;SDS011;60644;55.858;37.390;2023-03-24T16:53:14;4.10;;;0.90;;
72601;SDS011;60644;55.858;37.390;2023-03-24T16:55:40;5.87;;;1.07;;
72601;SDS011;60644;55.858;37.390;2023-03-24T16:58:06;5.80;;;1.15;;
72601;SDS011;60644;55.858;37.390;2023-03-24T17:00:33;4.90;;;1.02;;
72601;SDS011;60644;55.858;37.390;2023-03-24T17:03:02;4.47;;;0.75;;
72601;SDS011;60644;55.858;37.390;2023-03-24T17:05:29;6.40;;;1.15;;
72601;SDS011;60644;55.858;37.390;2023-03-24T17:07:56;3.47;;;0.70;;
72601;SDS011;60644;55.858;37.390;2023-03-24T17:10:24;3.35;;;0.60;;
72601;SDS011;60644;55.858;37.390;2023-03-24T17:12:51;3.58;;;0.60;;
72601;SDS011;60644;55.858;37.390;2023-03-24T17:17:46;2.88;;;0.52;;
72601;SDS011;60644;55.858;37.390;2023-03-24T17:20:11;6.10;;;0.70;;
72601;SDS011;60644;55.858;37.390;2023-03-24T17:22:38;3.58;;;0.50;;
72601;SDS011;60644;55.858;37.390;2023-03-24T17:25:05;3.22;;;0.60;;
72601;SDS011;60644;55.858;37.390;2023-03-24T17:27:31;3.20;;;0.40;;
72601;SDS011;60644;55.858;37.390;2023-03-24T17:29:57;3.72;;;0.50;;
72601;SDS011;60644;55.858;37.390;2023-03-24T17:32:29;3.10;;;0.60;;
72601;SDS011;60644;55.858;37.390;2023-03-24T17:34:57;3.92;;;0.70;;
72601;SDS011;60644;55.858;37.390;2023-03-24T17:37:23;4.03;;;0.70;;